createdAt,value
2023-02-17T00:00:56.667Z,101142.34
2023-02-17T00:03:23.781Z,101147.00
2023-02-17T00:05:51.128Z,101144.31
2023-02-17T00:08:17.668Z,101137.22
2023-02-17T00:10:44.189Z,101137.22
2023-02-17T00:13:10.525Z,101134.53
2023-02-17T00:15:40.402Z,101137.97
2023-02-17T00:18:06.777Z,101134.28
2023-02-17T00:20:33.074Z,101130.72
2023-02-17T00:22:59.432Z,101126.22
2023-02-17T00:25:25.850Z,101119.84
2023-02-17T00:27:52.176Z,101115.31
2023-02-17T00:30:18.791Z,101118.81
2023-02-17T00:32:45.352Z,101121.50
2023-02-17T00:35:11.666Z,101123.22
2023-02-17T00:37:38.436Z,101123.88
2023-02-17T00:40:05.552Z,101125.75
2023-02-17T00:42:31.897Z,101125.75
2023-02-17T00:44:58.239Z,101122.91
2023-02-17T00:47:24.644Z,101114.66
2023-02-17T00:49:50.981Z,101113.69
2023-02-17T00:52:17.303Z,101112.66
2023-02-17T00:54:43.667Z,101114.38
2023-02-17T00:57:09.975Z,101116.06
2023-02-17T00:59:36.314Z,101107.84
2023-02-17T01:02:02.754Z,101108.69
2023-02-17T01:04:29.226Z,101103.13
2023-02-17T01:06:55.637Z,101107.53
2023-02-17T01:09:22.035Z,101109.19
2023-02-17T01:11:48.430Z,101101.00
2023-02-17T01:14:15.063Z,101104.50
2023-02-17T01:16:46.267Z,101113.09
2023-02-17T01:19:15.643Z,101102.34
2023-02-17T01:21:42.399Z,101106.56
2023-02-17T01:24:09.688Z,101110.09
2023-02-17T01:26:36.828Z,101104.56
2023-02-17T01:29:05.361Z,101105.25
2023-02-17T01:31:32.193Z,101105.25
2023-02-17T01:34:01.439Z,101100.56
2023-02-17T01:36:28.511Z,101099.56
2023-02-17T01:38:55.065Z,101090.47
2023-02-17T01:41:26.547Z,101090.34
2023-02-17T01:44:12.898Z,101091.88
2023-02-17T01:46:40.555Z,101088.00
2023-02-17T01:49:17.354Z,101092.38
2023-02-17T01:51:47.584Z,101085.31
2023-02-17T01:54:22.627Z,101078.09
2023-02-17T01:56:51.473Z,101068.16
2023-02-17T01:59:20.932Z,101066.50
2023-02-17T02:01:49.506Z,101070.03
2023-02-17T02:04:18.917Z,101047.66
2023-02-17T02:06:45.907Z,101043.13
2023-02-17T02:09:22.641Z,101043.81
2023-02-17T02:11:50.850Z,101026.97
2023-02-17T02:14:19.909Z,101021.44
2023-02-17T02:17:14.218Z,101021.28
2023-02-17T02:20:08.653Z,101012.22
2023-02-17T02:23:07.058Z,101020.09
2023-02-17T02:26:10.721Z,101025.34
2023-02-17T02:28:58.527Z,101033.22
2023-02-17T02:31:37.592Z,101041.16
2023-02-17T02:34:09.709Z,101035.78
2023-02-17T02:36:43.604Z,101037.44
2023-02-17T02:39:13.650Z,101033.78
2023-02-17T02:41:45.612Z,101031.78
2023-02-17T02:44:14.941Z,101038.00
2023-02-17T02:46:41.333Z,101025.38
2023-02-17T02:49:08.533Z,101033.44
2023-02-17T02:52:03.883Z,101025.03
2023-02-17T02:55:07.610Z,101015.13
2023-02-17T02:58:02.739Z,101002.50
2023-02-17T03:01:00.812Z,101008.75
2023-02-17T03:03:45.602Z,100997.13
2023-02-17T03:06:16.723Z,100997.13
2023-02-17T03:08:52.305Z,100986.34
2023-02-17T03:11:32.248Z,100973.91
2023-02-17T03:14:10.735Z,100980.13
2023-02-17T03:16:38.874Z,100974.94
2023-02-17T03:19:06.801Z,100983.84
2023-02-17T03:21:43.500Z,100982.00
2023-02-17T03:24:10.472Z,100976.59
2023-02-17T03:26:36.832Z,100988.38
2023-02-17T03:29:03.691Z,100995.44
2023-02-17T03:31:30.998Z,100978.28
2023-02-17T03:33:58.040Z,100974.59
2023-02-17T03:36:24.489Z,100977.97
2023-02-17T03:38:51.243Z,100976.97
2023-02-17T03:41:17.790Z,100972.28
2023-02-17T03:43:44.163Z,100970.41
2023-02-17T03:46:12.742Z,100956.81
2023-02-17T03:48:39.485Z,100966.56
2023-02-17T03:51:21.128Z,100960.00
2023-02-17T03:53:48.453Z,100964.38
2023-02-17T03:56:16.082Z,100962.69
2023-02-17T03:58:43.216Z,100965.22
2023-02-17T04:01:11.372Z,100956.13
2023-02-17T04:03:38.834Z,100953.28
2023-02-17T04:06:06.204Z,100945.22
2023-02-17T04:08:33.136Z,100945.03
2023-02-17T04:11:01.899Z,100936.81
2023-02-17T04:13:28.980Z,100951.09
2023-02-17T04:15:55.701Z,100955.47
2023-02-17T04:18:23.024Z,100960.84
2023-02-17T04:20:51.049Z,100969.63
2023-02-17T04:23:17.968Z,100968.78
2023-02-17T04:25:45.025Z,100970.63
2023-02-17T04:28:12.888Z,100967.75
2023-02-17T04:30:39.645Z,100965.91
2023-02-17T04:33:06.151Z,100955.81
2023-02-17T04:35:32.525Z,100942.34
2023-02-17T04:37:58.993Z,100934.97
2023-02-17T04:40:25.351Z,100935.81
2023-02-17T04:42:51.707Z,100928.56
2023-02-17T04:45:18.190Z,100927.56
2023-02-17T04:47:44.490Z,100937.50
2023-02-17T04:50:11.753Z,100935.66
2023-02-17T04:52:38.518Z,100927.56
2023-02-17T04:55:06.039Z,100935.47
2023-02-17T04:57:32.743Z,100931.94
2023-02-17T04:59:59.064Z,100938.16
2023-02-17T05:02:28.534Z,100933.63
2023-02-17T05:04:54.995Z,100927.25
2023-02-17T05:07:21.837Z,100930.94
2023-02-17T05:09:48.279Z,100936.34
2023-02-17T05:12:14.639Z,100933.63
2023-02-17T05:14:41.107Z,100932.63
2023-02-17T05:17:07.528Z,100927.25
2023-02-17T05:19:34.307Z,100925.38
2023-02-17T05:22:00.626Z,100908.38
2023-02-17T05:24:26.961Z,100902.84
2023-02-17T05:26:53.387Z,100901.97
2023-02-17T05:29:19.833Z,100923.53
2023-02-17T05:31:46.321Z,100918.13
2023-02-17T05:34:13.086Z,100913.63
2023-02-17T05:36:39.434Z,100922.53
2023-02-17T05:39:06.046Z,100913.63
2023-02-17T05:41:32.495Z,100911.91
2023-02-17T05:43:58.836Z,100920.00
2023-02-17T05:46:25.194Z,100912.75
2023-02-17T05:48:51.581Z,100907.38
2023-02-17T05:51:18.041Z,100903.69
2023-02-17T05:53:44.774Z,100886.69
2023-02-17T05:56:11.302Z,100880.44
2023-02-17T05:58:37.867Z,100888.53
2023-02-17T06:01:08.993Z,100891.06
2023-02-17T06:03:35.383Z,100884.16
2023-02-17T06:06:01.830Z,100890.38
2023-02-17T06:08:28.286Z,100892.22
2023-02-17T06:10:54.740Z,100888.53
2023-02-17T06:13:21.589Z,100894.94
2023-02-17T06:15:48.253Z,100901.16
2023-02-17T06:18:14.802Z,100904.69
2023-02-17T06:20:41.281Z,100912.75
2023-02-17T06:23:07.673Z,100889.53
2023-02-17T06:25:34.176Z,100896.59
2023-02-17T06:28:00.606Z,100898.31
2023-02-17T06:30:27.034Z,100892.09
2023-02-17T06:32:53.459Z,100890.22
2023-02-17T06:35:19.839Z,100900.81
2023-02-17T06:37:46.327Z,100901.66
2023-02-17T06:40:13.118Z,100902.50
2023-02-17T06:42:39.469Z,100888.03
2023-02-17T06:45:06.486Z,100877.25
2023-02-17T06:47:33.996Z,100886.16
2023-02-17T06:50:00.420Z,100872.72
2023-02-17T06:52:27.172Z,100885.19
2023-02-17T06:54:53.645Z,100894.25
2023-02-17T06:57:20.137Z,100898.66
2023-02-17T06:59:46.602Z,100887.88
2023-02-17T07:02:14.293Z,100889.53
2023-02-17T07:04:41.980Z,100886.00
2023-02-17T07:07:08.998Z,100886.00
2023-02-17T07:09:35.490Z,100893.25
2023-02-17T07:12:05.531Z,100888.53
2023-02-17T07:14:33.878Z,100881.47
2023-02-17T07:17:00.943Z,100881.47
2023-02-17T07:19:27.277Z,100880.63
2023-02-17T07:21:53.900Z,100886.84
2023-02-17T07:24:20.334Z,100882.50
2023-02-17T07:26:46.771Z,100882.50
2023-02-17T07:29:13.339Z,100886.84
2023-02-17T07:31:39.784Z,100874.41
2023-02-17T07:34:06.384Z,100885.19
2023-02-17T07:36:32.922Z,100883.31
2023-02-17T07:38:59.578Z,100886.00
2023-02-17T07:41:28.599Z,100885.00
2023-02-17T07:43:56.540Z,100883.13
2023-02-17T07:46:24.096Z,100877.75
2023-02-17T07:48:50.522Z,100876.75
2023-02-17T07:51:19.956Z,100866.97
2023-02-17T07:53:47.067Z,100876.09
2023-02-17T07:56:15.263Z,100877.94
2023-02-17T07:58:43.223Z,100876.22
2023-02-17T08:01:13.134Z,100872.72
2023-02-17T08:03:40.169Z,100884.50
2023-02-17T08:06:11.827Z,100872.56
2023-02-17T08:09:06.668Z,100862.78
2023-02-17T08:11:51.501Z,100854.88
2023-02-17T08:14:20.002Z,100860.06
2023-02-17T08:16:46.538Z,100849.16
2023-02-17T08:19:13.071Z,100851.69
2023-02-17T08:21:39.512Z,100844.44
2023-02-17T08:24:06.337Z,100845.97
2023-02-17T08:26:32.809Z,100842.25
2023-02-17T08:28:59.234Z,100829.47
2023-02-17T08:31:29.520Z,100845.28
2023-02-17T08:33:57.094Z,100844.44
2023-02-17T08:36:24.679Z,100848.66
2023-02-17T08:38:54.275Z,100841.25
2023-02-17T08:41:24.679Z,100845.44
2023-02-17T08:43:52.274Z,100834.69
2023-02-17T08:46:19.662Z,100838.03
2023-02-17T08:48:46.665Z,100837.03
2023-02-17T08:51:15.216Z,100840.56
2023-02-17T08:53:42.320Z,100853.00
2023-02-17T08:56:09.180Z,100864.44
2023-02-17T08:58:36.315Z,100864.44
2023-02-17T09:01:03.819Z,100874.38
2023-02-17T09:03:30.600Z,100884.13
2023-02-17T09:05:57.679Z,100875.91
2023-02-17T09:08:25.122Z,100879.63
2023-02-17T09:10:51.924Z,100883.81
2023-02-17T09:13:19.043Z,100895.25
2023-02-17T09:15:46.034Z,100897.31
2023-02-17T09:18:12.570Z,100897.94
2023-02-17T09:20:39.532Z,100889.72
2023-02-17T09:23:07.008Z,100885.31
2023-02-17T09:25:33.490Z,100897.59
2023-02-17T09:28:00.058Z,100884.13
2023-02-17T09:30:26.733Z,100898.28
2023-02-17T09:32:53.300Z,100902.69
2023-02-17T09:35:19.976Z,100916.81
2023-02-17T09:37:46.428Z,100908.59
2023-02-17T09:40:21.025Z,100903.69
2023-02-17T09:42:47.872Z,100912.63
2023-02-17T09:45:21.619Z,100901.50
2023-02-17T09:47:52.735Z,100911.09
2023-02-17T09:50:23.493Z,100882.13
2023-02-17T09:52:54.997Z,100878.44
2023-02-17T09:55:36.061Z,100897.63
2023-02-17T09:58:16.705Z,100889.19
2023-02-17T10:00:47.041Z,100880.94
2023-02-17T10:03:24.758Z,100883.09
2023-02-17T10:06:26.561Z,100878.22
2023-02-17T10:09:17.456Z,100873.31
2023-02-17T10:12:02.500Z,100863.00
2023-02-17T10:15:04.257Z,100873.28
2023-02-17T10:18:15.734Z,100862.97
2023-02-17T10:20:51.767Z,100818.50
2023-02-17T10:23:27.012Z,100826.22
2023-02-17T10:26:14.551Z,100824.03
2023-02-17T10:28:51.043Z,100819.94
2023-02-17T10:31:45.523Z,100835.63
2023-02-17T10:34:35.380Z,100833.38
2023-02-17T10:37:31.056Z,100827.47
2023-02-17T10:39:58.640Z,100815.31
2023-02-17T10:42:27.217Z,100820.16
2023-02-17T10:45:00.351Z,100811.38
2023-02-17T10:47:26.941Z,100805.63
2023-02-17T10:49:56.148Z,100816.72
2023-02-17T10:52:27.806Z,100808.25
2023-02-17T10:55:11.305Z,100814.97
2023-02-17T10:57:52.926Z,100817.13
2023-02-17T11:00:19.642Z,100818.47
2023-02-17T11:02:48.853Z,100820.59
2023-02-17T11:05:33.218Z,100821.94
2023-02-17T11:08:23.602Z,100833.25
2023-02-17T11:11:16.167Z,100822.94
2023-02-17T11:14:11.893Z,100814.47
2023-02-17T11:16:42.060Z,100820.72
2023-02-17T11:19:24.394Z,100821.38
2023-02-17T11:21:55.877Z,100809.75
2023-02-17T11:24:22.904Z,100802.28
2023-02-17T11:26:57.493Z,100800.06
2023-02-17T11:29:24.390Z,100789.28
2023-02-17T11:32:08.852Z,100785.16
2023-02-17T11:34:40.821Z,100776.72
2023-02-17T11:37:13.297Z,100805.22
2023-02-17T11:39:45.865Z,100800.47
2023-02-17T11:42:17.157Z,100795.56
2023-02-17T11:44:43.534Z,100783.06
2023-02-17T11:47:29.031Z,100792.66
2023-02-17T11:50:14.294Z,100804.50
2023-02-17T11:53:22.309Z,100826.75
2023-02-17T11:55:56.544Z,100818.00
2023-02-17T11:58:41.401Z,100819.00
2023-02-17T12:01:29.653Z,100790.16
2023-02-17T12:04:15.412Z,100805.69
2023-02-17T12:06:41.769Z,100798.63
2023-02-17T12:09:17.203Z,100812.97
2023-02-17T12:12:28.605Z,100815.47
2023-02-17T12:15:13.698Z,100820.03
2023-02-17T12:18:01.897Z,100821.69
2023-02-17T12:20:45.692Z,100813.59
2023-02-17T12:23:19.065Z,100828.97
2023-02-17T12:25:57.047Z,100821.91
2023-02-17T12:28:41.808Z,100812.97
2023-02-17T12:31:24.710Z,100806.91
2023-02-17T12:34:00.804Z,100810.81
2023-02-17T12:36:34.571Z,100801.88
2023-02-17T12:39:11.549Z,100797.66
2023-02-17T12:41:53.333Z,100825.69
2023-02-17T12:44:26.232Z,100820.28
2023-02-17T12:46:57.360Z,100814.03
2023-02-17T12:49:32.168Z,100830.25
2023-02-17T12:52:13.975Z,100828.38
2023-02-17T12:54:56.877Z,100816.94
2023-02-17T12:57:47.278Z,100848.47
2023-02-17T13:00:34.312Z,100836.84
2023-02-17T13:03:03.283Z,100840.56
2023-02-17T13:05:40.886Z,100838.88
2023-02-17T13:08:21.314Z,100856.94
2023-02-17T13:10:47.893Z,100838.03
2023-02-17T13:13:28.035Z,100855.94
2023-02-17T13:16:11.847Z,100864.88
2023-02-17T13:18:40.918Z,100855.06
2023-02-17T13:21:27.668Z,100897.81
2023-02-17T13:23:59.029Z,100884.50
2023-02-17T13:26:39.367Z,100888.75
2023-02-17T13:29:08.792Z,100895.50
2023-02-17T13:31:55.824Z,100911.56
2023-02-17T13:34:33.785Z,100899.81
2023-02-17T13:37:03.581Z,100910.44
2023-02-17T13:39:32.709Z,100902.25
2023-02-17T13:42:01.227Z,100901.06
2023-02-17T13:44:40.045Z,100908.84
2023-02-17T13:47:14.309Z,100907.53
2023-02-17T13:49:41.038Z,100905.69
2023-02-17T13:52:10.645Z,100908.75
2023-02-17T13:54:37.131Z,100900.16
2023-02-17T13:57:03.748Z,100900.50
2023-02-17T13:59:30.292Z,100893.59
2023-02-17T14:01:56.651Z,100910.81
2023-02-17T14:04:28.151Z,100910.31
2023-02-17T14:06:58.501Z,100915.72
2023-02-17T14:09:30.954Z,100909.66
2023-02-17T14:11:59.002Z,100897.34
2023-02-17T14:14:31.749Z,100899.38
2023-02-17T14:17:04.822Z,100894.81
2023-02-17T14:19:45.792Z,100901.06
2023-02-17T14:22:28.543Z,100906.44
2023-02-17T14:25:06.374Z,100888.44
2023-02-17T14:27:53.001Z,100883.69
2023-02-17T14:30:39.728Z,100897.84
2023-02-17T14:33:18.131Z,100893.13
2023-02-17T14:35:50.393Z,100918.75
2023-02-17T14:38:22.068Z,100896.97
2023-02-17T14:40:49.403Z,100907.75
2023-02-17T14:43:16.059Z,100905.75
2023-02-17T14:45:42.415Z,100901.19
2023-02-17T14:48:08.928Z,100894.59
2023-02-17T14:50:42.262Z,100895.44
2023-02-17T14:53:13.031Z,100891.38
2023-02-17T14:55:53.812Z,100912.78
2023-02-17T14:58:23.428Z,100920.03
2023-02-17T15:00:51.592Z,100921.88
2023-02-17T15:03:18.546Z,100915.66
2023-02-17T15:05:45.373Z,100923.75
2023-02-17T15:08:18.067Z,100925.41
2023-02-17T15:10:45.122Z,100921.06
2023-02-17T15:13:17.429Z,100926.09
2023-02-17T15:15:47.806Z,100946.00
2023-02-17T15:18:16.646Z,100930.66
2023-02-17T15:20:45.573Z,100933.50
2023-02-17T15:23:17.758Z,100931.66
2023-02-17T15:25:45.201Z,100928.13
2023-02-17T15:28:17.977Z,100933.50
2023-02-17T15:30:51.327Z,100931.00
2023-02-17T15:33:18.552Z,100943.81
2023-02-17T15:35:46.078Z,100938.22
2023-02-17T15:38:13.771Z,100928.47
2023-02-17T15:40:41.625Z,100941.81
2023-02-17T15:43:14.933Z,100942.63
2023-02-17T15:45:41.352Z,100949.88
2023-02-17T15:48:14.228Z,100930.81
2023-02-17T15:50:40.650Z,100936.41
2023-02-17T15:53:07.130Z,100926.59
2023-02-17T15:55:34.661Z,100954.41
2023-02-17T15:58:04.484Z,100936.41
2023-02-17T16:00:36.064Z,100956.97
2023-02-17T16:03:02.865Z,100937.41
2023-02-17T16:05:30.433Z,100960.84
2023-02-17T16:07:57.167Z,100958.16
2023-02-17T16:10:29.144Z,100951.72
2023-02-17T16:12:58.108Z,100953.41
2023-02-17T16:15:26.023Z,100960.50
2023-02-17T16:17:52.519Z,100964.03
2023-02-17T16:20:26.629Z,100960.13
2023-02-17T16:22:53.373Z,100970.09
2023-02-17T16:25:20.682Z,100973.63
2023-02-17T16:27:49.411Z,100970.94
2023-02-17T16:30:31.381Z,100989.66
2023-02-17T16:32:58.075Z,100996.91
2023-02-17T16:35:27.060Z,100981.41
2023-02-17T16:38:05.269Z,100997.59
2023-02-17T16:40:34.868Z,100998.56
2023-02-17T16:43:01.304Z,101011.22
2023-02-17T16:45:30.384Z,101005.00
2023-02-17T16:47:59.897Z,101006.69
2023-02-17T16:50:34.929Z,101016.63
2023-02-17T16:53:04.941Z,101006.69
2023-02-17T16:55:34.671Z,101020.16
2023-02-17T16:58:01.617Z,101025.56
2023-02-17T17:00:31.532Z,101029.97
2023-02-17T17:02:58.768Z,101033.50
2023-02-17T17:05:28.278Z,101041.41
2023-02-17T17:07:54.913Z,101039.53
2023-02-17T17:10:25.511Z,101026.91
2023-02-17T17:12:52.197Z,101045.78
2023-02-17T17:15:19.222Z,101053.03
2023-02-17T17:17:55.083Z,101051.19
2023-02-17T17:20:27.964Z,101070.91
2023-02-17T17:22:54.505Z,101057.41
2023-02-17T17:25:20.949Z,101059.28
2023-02-17T17:27:47.460Z,101053.03
2023-02-17T17:30:17.722Z,101072.78
2023-02-17T17:32:45.661Z,101069.22
2023-02-17T17:35:12.660Z,101068.38
2023-02-17T17:37:39.690Z,101085.41
2023-02-17T17:40:07.717Z,101091.66
2023-02-17T17:42:37.474Z,101095.00
2023-02-17T17:45:04.062Z,101112.22
2023-02-17T17:47:31.263Z,101111.19
2023-02-17T17:49:57.787Z,101121.00
2023-02-17T17:52:24.349Z,101114.75
2023-02-17T17:54:50.779Z,101140.03
2023-02-17T17:57:17.154Z,101129.44
2023-02-17T17:59:43.513Z,101146.63
2023-02-17T18:02:09.883Z,101186.44
2023-02-17T18:04:36.278Z,101186.94
2023-02-17T18:07:03.347Z,101185.75
2023-02-17T18:09:32.710Z,101200.41
2023-02-17T18:12:02.792Z,101196.69
2023-02-17T18:14:29.491Z,101204.88
2023-02-17T18:16:57.446Z,101219.31
2023-02-17T18:19:23.892Z,101232.53
2023-02-17T18:21:50.239Z,101238.69
2023-02-17T18:24:16.580Z,101238.94
2023-02-17T18:26:42.886Z,101247.31
2023-02-17T18:29:09.218Z,101248.41
2023-02-17T18:31:35.907Z,101239.44
2023-02-17T18:34:02.336Z,101244.47
2023-02-17T18:36:29.129Z,101255.84
2023-02-17T18:38:55.568Z,101259.00
2023-02-17T18:41:27.949Z,101266.53
2023-02-17T18:43:55.445Z,101267.69
2023-02-17T18:46:22.106Z,101266.16
2023-02-17T18:48:48.586Z,101277.94
2023-02-17T18:51:17.409Z,101261.94
2023-02-17T18:53:43.717Z,101259.41
2023-02-17T18:56:12.690Z,101275.56
2023-02-17T18:58:39.459Z,101278.25
2023-02-17T19:01:06.358Z,101274.72
2023-02-17T19:03:32.788Z,101272.88
2023-02-17T19:05:59.109Z,101290.69
2023-02-17T19:08:25.879Z,101287.00
2023-02-17T19:10:52.238Z,101288.69
2023-02-17T19:13:18.548Z,101285.00
2023-02-17T19:15:44.960Z,101290.38
2023-02-17T19:18:11.392Z,101291.25
2023-02-17T19:20:37.782Z,101295.75
2023-02-17T19:23:04.117Z,101300.28
2023-02-17T19:25:30.489Z,101311.22
2023-02-17T19:27:56.884Z,101298.94
2023-02-17T19:30:23.320Z,101310.84
2023-02-17T19:32:49.688Z,101305.59
2023-02-17T19:35:16.088Z,101303.22
2023-02-17T19:37:42.429Z,101317.84
2023-02-17T19:40:09.134Z,101331.59
2023-02-17T19:42:36.449Z,101329.03
2023-02-17T19:45:02.867Z,101323.97
2023-02-17T19:47:30.916Z,101318.91
2023-02-17T19:49:57.367Z,101326.28
2023-02-17T19:52:23.692Z,101333.09
2023-02-17T19:54:50.423Z,101338.78
2023-02-17T19:57:18.236Z,101347.31
2023-02-17T19:59:46.312Z,101340.69
2023-02-17T20:02:14.455Z,101344.53
2023-02-17T20:04:41.210Z,101338.63
2023-02-17T20:07:07.573Z,101352.28
2023-02-17T20:09:33.946Z,101358.81
2023-02-17T20:12:00.287Z,101360.13
2023-02-17T20:14:26.895Z,101362.97
2023-02-17T20:16:55.301Z,101362.28
2023-02-17T20:19:22.160Z,101354.22
2023-02-17T20:21:48.540Z,101359.59
2023-02-17T20:24:15.172Z,101354.50
2023-02-17T20:26:44.561Z,101358.06
2023-02-17T20:29:12.892Z,101364.41
2023-02-17T20:31:40.885Z,101356.50
2023-02-17T20:34:17.537Z,101363.88
2023-02-17T20:36:43.845Z,101370.38
2023-02-17T20:39:10.205Z,101374.22
2023-02-17T20:41:36.554Z,101383.25
2023-02-17T20:44:04.436Z,101382.56
2023-02-17T20:46:31.004Z,101382.56
2023-02-17T20:48:57.409Z,101378.16
2023-02-17T20:51:24.051Z,101381.69
2023-02-17T20:53:51.193Z,101370.94
2023-02-17T20:56:23.909Z,101372.66
2023-02-17T20:58:51.943Z,101386.94
2023-02-17T21:01:19.668Z,101385.94
2023-02-17T21:03:47.052Z,101380.56
2023-02-17T21:06:23.126Z,101372.34
2023-02-17T21:08:58.517Z,101379.28
2023-02-17T21:11:24.950Z,101368.84
2023-02-17T21:13:52.466Z,101382.09
2023-02-17T21:16:22.274Z,101376.59
2023-02-17T21:18:49.240Z,101368.53
2023-02-17T21:21:16.524Z,101366.69
2023-02-17T21:23:43.344Z,101368.41
2023-02-17T21:26:11.351Z,101376.28
2023-02-17T21:28:38.348Z,101379.81
2023-02-17T21:31:05.142Z,101382.50
2023-02-17T21:33:31.944Z,101386.06
2023-02-17T21:35:58.302Z,101386.06
2023-02-17T21:38:24.693Z,101390.44
2023-02-17T21:40:51.068Z,101388.75
2023-02-17T21:43:37.647Z,101386.91
2023-02-17T21:46:09.179Z,101388.75
2023-02-17T21:48:35.655Z,101389.72
2023-02-17T21:51:06.592Z,101391.44
2023-02-17T21:53:33.044Z,101392.41
2023-02-17T21:56:00.341Z,101399.78
2023-02-17T21:58:27.378Z,101399.78
2023-02-17T22:00:53.763Z,101399.78
2023-02-17T22:03:20.161Z,101398.94
2023-02-17T22:05:46.511Z,101394.41
2023-02-17T22:08:12.867Z,101396.13
2023-02-17T22:10:40.480Z,101398.81
2023-02-17T22:13:07.723Z,101411.22
2023-02-17T22:15:35.139Z,101397.78
2023-02-17T22:18:01.945Z,101402.19
2023-02-17T22:20:29.008Z,101395.09
2023-02-17T22:22:55.601Z,101400.47
2023-02-17T22:25:23.693Z,101390.75
2023-02-17T22:27:50.541Z,101388.06
2023-02-17T22:30:17.462Z,101382.81
2023-02-17T22:32:43.841Z,101381.97
2023-02-17T22:35:10.726Z,101378.56
2023-02-17T22:37:37.511Z,101376.91
2023-02-17T22:40:05.074Z,101376.06
2023-02-17T22:42:31.457Z,101385.94
2023-02-17T22:44:57.783Z,101378.03
2023-02-17T22:47:24.120Z,101381.03
2023-02-17T22:49:50.440Z,101375.78
2023-02-17T22:52:16.755Z,101370.72
2023-02-17T22:54:44.054Z,101375.53
2023-02-17T22:57:10.416Z,101369.59
2023-02-17T22:59:36.802Z,101377.94
2023-02-17T23:02:03.300Z,101374.72
2023-02-17T23:04:29.823Z,101370.47
2023-02-17T23:06:56.506Z,101380.66
2023-02-17T23:09:23.138Z,101370.19
2023-02-17T23:11:55.381Z,101365.13
2023-02-17T23:14:30.600Z,101375.31
2023-02-17T23:17:02.291Z,101374.91
2023-02-17T23:19:29.561Z,101379.88
2023-02-17T23:21:58.510Z,101374.94
2023-02-17T23:24:26.277Z,101381.72
2023-02-17T23:26:54.315Z,101376.78
2023-02-17T23:29:20.879Z,101377.34
2023-02-17T23:31:47.373Z,101369.72
2023-02-17T23:34:15.078Z,101362.09
2023-02-17T23:36:43.161Z,101366.91
2023-02-17T23:39:10.133Z,101367.19
2023-02-17T23:41:37.717Z,101369.28
2023-02-17T23:44:05.356Z,101357.00
2023-02-17T23:46:31.842Z,101367.06
2023-02-17T23:48:58.271Z,101367.34
2023-02-17T23:51:25.050Z,101367.47
2023-02-17T23:53:51.413Z,101349.81
2023-02-17T23:56:25.513Z,101355.91
2023-02-17T23:58:52.106Z,101350.66
